Time;durP1;ratioP1;P1;durP2;ratioP2;P2;SDS_P1;SDS_P2;PMS_P1;PMS_P2;Temp;Humidity;BMP_temperature;BMP_pressure;BME280_temperature;BME280_humidity;BME280_pressure;Samples;Min_cycle;Max_cycle;Signal;HPM_P1;HPM_P2
2021/06/18 00:01:35;;;;;;;4.10;2.83;;;16.80;70.80;;;;;;5041112;28;21320;-77
2021/06/18 00:04:01;;;;;;;3.70;3.25;;;16.70;71.20;;;;;;5041778;28;20111;-77
2021/06/18 00:06:27;;;;;;;6.10;3.30;;;16.60;71.90;;;;;;5037405;28;20036;-78
2021/06/18 00:08:52;;;;;;;3.13;2.88;;;16.60;71.40;;;;;;5037420;28;20039;-78
2021/06/18 00:11:18;;;;;;;3.35;3.05;;;16.80;70.80;;;;;;5036317;28;20183;-78
2021/06/18 00:13:43;;;;;;;3.65;2.80;;;16.90;70.30;;;;;;5038226;28;20136;-77
2021/06/18 00:16:09;;;;;;;4.15;3.25;;;16.90;70.00;;;;;;5035760;28;20020;-77
2021/06/18 00:18:36;;;;;;;4.30;3.15;;;16.90;69.10;;;;;;5035685;28;20029;-77
2021/06/18 00:21:02;;;;;;;3.60;2.90;;;16.60;71.30;;;;;;5036976;28;20603;-78
2021/06/18 00:23:28;;;;;;;3.08;2.78;;;16.50;71.70;;;;;;5038787;28;20024;-78
2021/06/18 00:25:54;;;;;;;2.80;2.60;;;16.60;70.90;;;;;;5036097;28;20141;-78
2021/06/18 00:28:19;;;;;;;3.95;3.08;;;16.60;71.30;;;;;;5034277;28;20032;-77
2021/06/18 00:30:45;;;;;;;4.22;2.97;;;16.40;72.50;;;;;;5038910;28;20040;-77
2021/06/18 00:33:10;;;;;;;4.45;3.10;;;16.40;72.10;;;;;;5040637;28;20033;-78
2021/06/18 00:35:36;;;;;;;4.93;3.22;;;16.40;73.00;;;;;;5036307;28;20376;-78
2021/06/18 00:38:02;;;;;;;4.93;3.50;;;16.20;72.60;;;;;;5043712;28;20487;-77
2021/06/18 00:40:28;;;;;;;3.63;3.10;;;16.10;72.90;;;;;;5043314;28;20037;-78
2021/06/18 00:42:54;;;;;;;5.25;3.17;;;16.00;72.90;;;;;;5041739;28;20035;-78
2021/06/18 00:45:20;;;;;;;3.47;3.00;;;16.20;72.90;;;;;;5039591;28;20036;-78
2021/06/18 00:48:01;;;;;;;3.40;3.10;;;16.30;72.00;;;;;;5041404;28;20032;-77
2021/06/18 00:50:29;;;;;;;5.35;3.50;;;16.20;72.20;;;;;;5038637;28;20627;-77
2021/06/18 00:52:55;;;;;;;3.47;3.17;;;16.10;72.50;;;;;;5040606;28;20024;-78
2021/06/18 00:55:21;;;;;;;3.40;3.10;;;16.20;71.70;;;;;;5038185;28;20106;-77
2021/06/18 00:57:47;;;;;;;3.47;3.10;;;16.40;71.50;;;;;;5037329;28;20025;-77
2021/06/18 01:00:13;;;;;;;4.50;3.15;;;16.40;71.40;;;;;;5037570;28;20025;-77
2021/06/18 01:02:39;;;;;;;3.33;3.00;;;16.40;71.80;;;;;;5037409;28;20041;-77
2021/06/18 01:05:08;;;;;;;4.10;3.28;;;16.40;71.60;;;;;;5037144;28;21015;-77
2021/06/18 01:07:42;;;;;;;3.05;2.65;;;16.40;71.60;;;;;;5041124;28;20037;-77
2021/06/18 01:10:29;;;;;;;4.93;3.33;;;16.40;71.60;;;;;;5038195;28;20021;-78
2021/06/18 01:12:54;;;;;;;5.50;3.00;;;16.40;71.30;;;;;;5035944;28;20144;-78
2021/06/18 01:15:42;;;;;;;3.42;3.13;;;16.40;71.60;;;;;;5038826;28;20111;-77
2021/06/18 01:18:13;;;;;;;4.22;2.72;;;16.20;71.90;;;;;;5040397;28;20071;-77
2021/06/18 01:20:59;;;;;;;4.93;2.95;;;16.10;72.10;;;;;;5037520;28;20116;-78
2021/06/18 01:23:28;;;;;;;3.95;3.58;;;15.80;71.50;;;;;;5041713;28;20044;-77
2021/06/18 01:26:04;;;;;;;3.33;3.03;;;15.60;72.90;;;;;;5039034;28;20040;-78
2021/06/18 01:28:53;;;;;;;5.80;3.53;;;15.60;74.00;;;;;;5040006;28;20044;-78
2021/06/18 01:31:22;;;;;;;4.93;2.90;;;15.70;73.50;;;;;;5035158;28;20049;-77
2021/06/18 01:33:52;;;;;;;4.80;3.42;;;15.70;72.30;;;;;;5040094;28;20037;-77
2021/06/18 01:36:19;;;;;;;3.55;3.05;;;15.50;71.00;;;;;;5037369;28;20779;-77
2021/06/18 01:38:46;;;;;;;3.80;3.50;;;15.10;72.30;;;;;;5036410;28;20028;-78
2021/06/18 01:41:16;;;;;;;3.30;3.00;;;15.20;73.30;;;;;;5040224;28;20266;-77
2021/06/18 01:43:44;;;;;;;3.65;3.20;;;15.10;74.10;;;;;;5034404;28;20029;-78
2021/06/18 01:46:13;;;;;;;4.75;3.40;;;15.30;74.10;;;;;;5034000;28;20020;-77
2021/06/18 01:48:42;;;;;;;4.70;3.10;;;15.20;74.70;;;;;;5031315;28;20060;-77
2021/06/18 01:51:11;;;;;;;4.93;3.25;;;15.40;74.60;;;;;;5036996;28;20110;-77
2021/06/18 01:53:42;;;;;;;3.75;3.33;;;15.50;74.60;;;;;;5043939;28;20470;-78
2021/06/18 01:56:09;;;;;;;4.60;3.10;;;15.40;75.30;;;;;;5038853;28;20051;-77
2021/06/18 01:58:34;;;;;;;3.40;3.10;;;15.50;75.70;;;;;;5043465;28;20111;-76
2021/06/18 02:01:01;;;;;;;3.78;3.08;;;15.50;74.40;;;;;;5043332;28;20551;-77
2021/06/18 02:03:30;;;;;;;3.75;3.25;;;15.50;74.10;;;;;;5040163;28;20476;-78
2021/06/18 02:06:01;;;;;;;5.20;3.38;;;15.50;74.90;;;;;;5040165;28;20052;-79
2021/06/18 02:08:28;;;;;;;5.05;3.05;;;15.50;74.70;;;;;;5041496;28;20108;-78
2021/06/18 02:10:55;;;;;;;3.30;2.80;;;15.60;74.10;;;;;;5041048;28;20154;-77
2021/06/18 02:13:21;;;;;;;4.45;3.25;;;15.50;73.80;;;;;;5042619;28;20020;-78
2021/06/18 02:15:48;;;;;;;5.68;3.33;;;15.60;73.30;;;;;;5041590;28;20376;-78
2021/06/18 02:18:19;;;;;;;7.07;3.42;;;15.50;73.20;;;;;;5040438;28;20479;-78
2021/06/18 02:20:46;;;;;;;4.68;3.10;;;15.50;72.70;;;;;;5038892;28;20604;-76
2021/06/18 02:23:12;;;;;;;3.63;3.00;;;15.50;72.60;;;;;;5045078;28;20049;-77
2021/06/18 02:25:39;;;;;;;3.72;3.17;;;15.50;73.10;;;;;;5036768;28;20028;-77
2021/06/18 02:28:07;;;;;;;3.50;3.20;;;15.50;73.00;;;;;;5062243;28;20567;-76
2021/06/18 02:30:33;;;;;;;3.83;3.47;;;15.40;73.10;;;;;;5042058;28;20048;-77
2021/06/18 02:33:01;;;;;;;5.65;3.45;;;15.50;73.50;;;;;;5043720;28;20029;-77
2021/06/18 02:35:27;;;;;;;3.77;3.40;;;15.40;73.30;;;;;;5043845;28;20017;-77
2021/06/18 02:37:53;;;;;;;4.85;4.05;;;15.20;74.80;;;;;;5040276;28;20402;-76
2021/06/18 02:40:19;;;;;;;4.43;3.47;;;15.00;76.00;;;;;;5040012;28;20182;-77
2021/06/18 02:42:45;;;;;;;6.75;3.67;;;15.10;75.90;;;;;;5039798;28;20025;-77
2021/06/18 02:45:11;;;;;;;3.72;3.42;;;15.20;75.50;;;;;;5041750;28;20056;-77
2021/06/18 02:47:41;;;;;;;4.60;3.25;;;15.10;75.70;;;;;;5044341;28;20065;-77
2021/06/18 02:50:22;;;;;;;5.25;3.33;;;15.00;75.60;;;;;;5040115;28;20107;-77
2021/06/18 02:52:55;;;;;;;3.80;3.30;;;15.00;75.00;;;;;;5037845;28;21318;-78
2021/06/18 02:55:30;;;;;;;3.92;3.53;;;15.00;75.40;;;;;;5044051;28;20028;-77
2021/06/18 02:58:05;;;;;;;3.88;3.53;;;15.00;75.20;;;;;;5038413;28;20024;-77
2021/06/18 03:00:32;;;;;;;5.13;3.90;;;14.90;76.50;;;;;;5039165;28;20637;-77
2021/06/18 03:02:59;;;;;;;3.80;3.30;;;14.80;76.50;;;;;;5040531;28;20441;-78
2021/06/18 03:05:27;;;;;;;4.28;3.70;;;14.70;76.50;;;;;;5043760;28;20028;-77
2021/06/18 03:08:04;;;;;;;4.57;3.42;;;14.80;76.30;;;;;;5042256;28;20408;-77
2021/06/18 03:10:36;;;;;;;5.43;3.50;;;14.80;75.40;;;;;;5046336;28;20507;-77
2021/06/18 03:13:12;;;;;;;4.50;3.40;;;14.90;75.10;;;;;;5041274;28;20043;-78
2021/06/18 03:15:41;;;;;;;3.60;3.25;;;14.90;75.90;;;;;;5041737;28;20029;-77
2021/06/18 03:18:09;;;;;;;3.80;3.40;;;14.70;76.50;;;;;;5041493;28;20036;-79
2021/06/18 03:20:36;;;;;;;4.05;3.42;;;14.70;76.80;;;;;;5044142;28;20048;-77
2021/06/18 03:23:05;;;;;;;4.97;3.50;;;14.70;76.10;;;;;;5037672;28;20049;-77
2021/06/18 03:25:34;;;;;;;4.88;3.83;;;14.80;75.90;;;;;;5035750;28;20027;-76
2021/06/18 03:28:01;;;;;;;4.30;3.45;;;14.90;75.50;;;;;;5037650;28;20025;-77
2021/06/18 03:30:27;;;;;;;3.60;3.30;;;14.70;76.20;;;;;;5035306;28;20028;-78
2021/06/18 03:32:55;;;;;;;5.40;3.60;;;14.80;75.00;;;;;;5040412;28;20033;-77
2021/06/18 03:35:21;;;;;;;3.90;3.50;;;14.70;74.20;;;;;;5037814;28;20051;-77
2021/06/18 03:37:48;;;;;;;4.63;3.88;;;14.70;74.10;;;;;;5042464;28;20048;-77
2021/06/18 03:40:15;;;;;;;4.72;3.47;;;14.70;74.90;;;;;;5040735;28;20035;-78
2021/06/18 03:42:41;;;;;;;4.47;3.50;;;14.80;75.10;;;;;;5045620;28;20514;-77
2021/06/18 03:45:08;;;;;;;3.30;3.00;;;14.70;73.20;;;;;;5046903;28;20028;-77
2021/06/18 03:47:36;;;;;;;4.00;3.63;;;14.60;74.30;;;;;;5042579;28;20119;-78
2021/06/18 03:50:04;;;;;;;4.30;3.90;;;14.60;74.60;;;;;;5041794;28;21923;-77
2021/06/18 03:52:30;;;;;;;3.83;3.30;;;14.70;74.50;;;;;;5039561;28;20291;-77
2021/06/18 03:54:57;;;;;;;3.63;3.33;;;14.70;74.70;;;;;;5039691;28;20283;-78
2021/06/18 03:57:23;;;;;;;6.97;4.00;;;14.70;75.10;;;;;;5041928;28;20111;-78
2021/06/18 03:59:51;;;;;;;6.15;3.53;;;14.80;75.00;;;;;;5038576;28;20039;-78
2021/06/18 04:02:17;;;;;;;4.90;3.80;;;14.80;74.80;;;;;;5054717;28;20095;-78
2021/06/18 04:04:44;;;;;;;4.30;3.70;;;14.90;75.50;;;;;;5038065;28;20157;-79
2021/06/18 04:07:11;;;;;;;6.80;4.43;;;15.00;75.50;;;;;;5038482;28;20033;-79
2021/06/18 04:09:40;;;;;;;6.07;4.15;;;15.00;75.00;;;;;;5041291;28;20037;-78
2021/06/18 04:12:09;;;;;;;5.57;3.95;;;15.10;75.00;;;;;;5039378;28;20106;-79
2021/06/18 04:14:37;;;;;;;4.25;3.83;;;15.10;75.40;;;;;;5043438;28;20031;-79
2021/06/18 04:17:09;;;;;;;4.60;4.10;;;15.10;75.70;;;;;;5042309;28;20036;-78
2021/06/18 04:19:36;;;;;;;4.95;3.72;;;15.20;74.90;;;;;;5041664;28;20023;-79
2021/06/18 04:22:04;;;;;;;6.60;4.18;;;15.20;74.90;;;;;;5041913;28;20032;-78
2021/06/18 04:24:30;;;;;;;4.93;3.92;;;15.30;74.70;;;;;;5040340;28;20025;-77
2021/06/18 04:26:56;;;;;;;5.15;3.78;;;15.30;74.80;;;;;;5040188;28;20063;-78
2021/06/18 04:29:22;;;;;;;6.53;4.03;;;15.30;75.30;;;;;;5039837;28;20029;-77
2021/06/18 04:31:48;;;;;;;4.28;3.90;;;15.40;74.80;;;;;;5037154;28;20044;-78
2021/06/18 04:34:14;;;;;;;4.28;3.88;;;15.50;74.80;;;;;;5042714;28;20029;-77
2021/06/18 04:36:41;;;;;;;5.15;4.05;;;15.60;75.00;;;;;;5047840;28;20021;-77
2021/06/18 04:39:08;;;;;;;5.03;3.88;;;15.60;74.50;;;;;;5041732;28;20021;-78
2021/06/18 04:41:35;;;;;;;4.05;3.70;;;15.70;74.70;;;;;;5037245;28;20020;-77
2021/06/18 04:44:00;;;;;;;5.72;3.83;;;15.80;73.90;;;;;;5044445;28;20522;-79
2021/06/18 04:46:26;;;;;;;4.25;3.80;;;15.90;73.90;;;;;;5040686;28;20053;-77
2021/06/18 04:48:52;;;;;;;4.28;3.80;;;15.90;73.70;;;;;;5045044;28;20112;-78
2021/06/18 04:51:19;;;;;;;4.40;3.75;;;16.00;73.80;;;;;;5038914;28;20041;-78
2021/06/18 04:53:45;;;;;;;4.55;4.03;;;16.10;73.90;;;;;;5043759;28;20036;-78
2021/06/18 04:56:11;;;;;;;4.20;3.80;;;16.30;73.80;;;;;;5039047;28;20430;-77
2021/06/18 04:58:38;;;;;;;6.05;4.28;;;16.40;73.00;;;;;;5040787;28;20025;-78
2021/06/18 05:01:08;;;;;;;4.38;3.97;;;16.50;73.80;;;;;;5040768;28;20040;-78
2021/06/18 05:03:33;;;;;;;5.20;4.65;;;16.60;73.50;;;;;;5043987;28;20052;-77
2021/06/18 05:05:59;;;;;;;5.63;4.55;;;16.70;73.20;;;;;;5039628;28;20052;-78
2021/06/18 05:08:25;;;;;;;4.82;4.32;;;16.90;73.40;;;;;;5040827;28;20582;-77
2021/06/18 05:10:51;;;;;;;7.13;5.18;;;16.90;73.40;;;;;;5042490;28;20041;-78
2021/06/18 05:13:16;;;;;;;9.25;4.63;;;17.00;74.00;;;;;;5045974;28;20962;-77
2021/06/18 05:15:42;;;;;;;5.60;4.55;;;17.10;73.00;;;;;;5042267;28;20033;-77
2021/06/18 05:18:08;;;;;;;5.93;4.53;;;17.30;74.10;;;;;;5045469;28;20035;-77
2021/06/18 05:20:33;;;;;;;5.55;4.90;;;17.30;74.10;;;;;;5046787;28;20051;-78
2021/06/18 05:22:59;;;;;;;6.50;4.93;;;17.40;73.80;;;;;;5049098;28;20017;-77
2021/06/18 05:25:25;;;;;;;6.90;5.05;;;17.50;72.80;;;;;;5043868;28;20028;-77
2021/06/18 05:27:50;;;;;;;6.20;5.20;;;17.60;72.90;;;;;;5038630;28;20094;-78
2021/06/18 05:30:17;;;;;;;6.55;4.90;;;17.70;72.40;;;;;;5041928;28;20037;-78
2021/06/18 05:32:44;;;;;;;6.07;4.60;;;17.80;72.00;;;;;;5057944;28;20523;-78
2021/06/18 05:35:10;;;;;;;6.05;5.45;;;17.90;71.30;;;;;;5047470;28;20028;-78
2021/06/18 05:37:36;;;;;;;8.55;5.60;;;18.10;70.80;;;;;;5049914;28;20086;-77
2021/06/18 05:40:02;;;;;;;9.23;5.60;;;18.20;72.00;;;;;;5040976;28;20032;-77
2021/06/18 05:42:28;;;;;;;7.60;5.80;;;18.40;72.00;;;;;;5046609;28;20035;-78
2021/06/18 05:44:54;;;;;;;7.47;6.10;;;18.50;71.60;;;;;;5045325;28;20029;-78
2021/06/18 05:47:20;;;;;;;7.30;5.57;;;18.60;73.30;;;;;;5045852;28;20039;-78
2021/06/18 05:49:45;;;;;;;7.18;5.13;;;18.70;74.50;;;;;;5041529;28;20029;-77
2021/06/18 05:52:11;;;;;;;6.18;5.45;;;18.70;73.50;;;;;;5041478;28;20104;-77
2021/06/18 05:54:37;;;;;;;7.60;5.68;;;18.90;72.90;;;;;;5048185;28;20025;-77
2021/06/18 05:57:03;;;;;;;6.80;5.55;;;19.00;71.70;;;;;;5038816;28;20127;-76
2021/06/18 05:59:29;;;;;;;7.82;5.97;;;19.20;71.00;;;;;;5043752;28;20040;-78
2021/06/18 06:01:54;;;;;;;6.97;6.20;;;19.20;70.70;;;;;;5044248;28;20041;-77
2021/06/18 06:04:20;;;;;;;12.93;5.72;;;19.30;69.30;;;;;;5042603;28;20488;-78
2021/06/18 06:06:45;;;;;;;10.00;6.30;;;19.40;69.50;;;;;;5038837;28;20071;-78
2021/06/18 06:09:11;;;;;;;8.55;5.88;;;19.40;69.00;;;;;;5038197;28;20036;-78
2021/06/18 06:11:37;;;;;;;6.55;5.95;;;19.50;69.70;;;;;;5052856;28;20071;-77
2021/06/18 06:14:04;;;;;;;7.25;5.18;;;19.50;69.70;;;;;;5033358;28;20049;-78
2021/06/18 06:16:34;;;;;;;6.72;5.32;;;19.60;68.90;;;;;;5036157;28;20039;-78
2021/06/18 06:19:01;;;;;;;8.55;6.53;;;19.80;68.00;;;;;;5038904;28;20055;-78
2021/06/18 06:21:27;;;;;;;9.35;6.00;;;19.90;67.80;;;;;;5041005;28;20029;-77
2021/06/18 06:23:53;;;;;;;6.32;5.72;;;19.90;67.90;;;;;;5044359;28;20092;-78
2021/06/18 06:26:20;;;;;;;8.15;5.65;;;20.20;67.10;;;;;;5038652;28;20096;-78
2021/06/18 06:28:46;;;;;;;6.95;6.22;;;20.20;66.50;;;;;;5039033;28;20040;-77
2021/06/18 06:31:12;;;;;;;8.35;6.80;;;20.40;66.00;;;;;;5045672;28;20044;-78
2021/06/18 06:33:38;;;;;;;8.38;6.95;;;20.50;65.40;;;;;;5037398;28;20029;-78
2021/06/18 06:36:03;;;;;;;9.18;6.75;;;20.60;65.60;;;;;;5038614;28;20033;-78
2021/06/18 06:38:29;;;;;;;7.63;6.15;;;20.70;65.00;;;;;;5037038;28;20104;-78
2021/06/18 06:40:56;;;;;;;7.25;6.30;;;20.80;65.40;;;;;;5038918;28;20491;-78
2021/06/18 06:43:21;;;;;;;10.05;6.53;;;20.90;65.10;;;;;;5043304;28;20112;-78
2021/06/18 06:45:48;;;;;;;8.45;6.88;;;21.00;64.60;;;;;;5038096;28;20115;-78
2021/06/18 06:48:14;;;;;;;8.50;7.60;;;21.00;64.80;;;;;;5039559;28;20921;-78
2021/06/18 06:50:40;;;;;;;8.15;7.10;;;21.20;64.30;;;;;;5039715;28;20048;-78
2021/06/18 06:53:09;;;;;;;8.27;6.68;;;21.20;63.30;;;;;;5035103;28;20028;-77
2021/06/18 06:55:35;;;;;;;8.05;7.07;;;21.30;63.40;;;;;;5038408;28;20078;-77
2021/06/18 06:58:02;;;;;;;9.32;7.13;;;21.40;64.40;;;;;;5036122;28;20040;-78
2021/06/18 07:00:28;;;;;;;8.52;6.30;;;21.50;63.50;;;;;;5037422;28;20053;-78
2021/06/18 07:02:53;;;;;;;7.82;6.35;;;21.50;63.00;;;;;;5037545;28;20050;-78
2021/06/18 07:05:20;;;;;;;7.60;5.72;;;21.60;63.10;;;;;;5035999;28;20048;-78
2021/06/18 07:07:46;;;;;;;9.02;6.55;;;21.70;63.20;;;;;;5040051;28;20033;-78
2021/06/18 07:10:12;;;;;;;8.98;6.18;;;21.70;62.10;;;;;;5038644;28;20039;-78
2021/06/18 07:12:38;;;;;;;7.53;5.78;;;21.80;62.20;;;;;;5039251;28;20025;-78
2021/06/18 07:15:05;;;;;;;6.85;5.72;;;21.90;61.90;;;;;;5038238;28;22155;-79
2021/06/18 07:17:30;;;;;;;9.77;6.03;;;22.00;62.10;;;;;;5038690;28;22358;-79
2021/06/18 07:19:57;;;;;;;9.45;6.53;;;22.10;61.20;;;;;;5039977;28;20025;-79
2021/06/18 07:22:24;;;;;;;6.53;5.75;;;22.20;60.70;;;;;;5038847;28;20036;-79
2021/06/18 07:24:50;;;;;;;7.45;5.75;;;22.30;60.90;;;;;;5039053;28;20029;-79
2021/06/18 07:27:16;;;;;;;8.63;5.85;;;22.50;61.40;;;;;;5036751;28;20059;-78
2021/06/18 07:29:43;;;;;;;8.52;5.80;;;22.60;60.80;;;;;;5045252;28;20032;-79
2021/06/18 07:32:09;;;;;;;6.00;5.15;;;22.80;61.10;;;;;;5036389;28;22934;-79
2021/06/18 07:34:36;;;;;;;5.78;5.07;;;22.90;61.00;;;;;;5038615;28;20025;-79
2021/06/18 07:37:02;;;;;;;5.88;5.03;;;23.10;59.90;;;;;;5037031;28;20036;-79
2021/06/18 07:39:28;;;;;;;5.32;4.72;;;23.30;59.00;;;;;;5036444;28;20040;-79
2021/06/18 07:41:54;;;;;;;6.63;5.20;;;23.40;58.50;;;;;;5037399;28;20033;-78
2021/06/18 07:44:20;;;;;;;6.65;4.88;;;23.40;58.30;;;;;;5053456;28;20131;-79
2021/06/18 07:46:45;;;;;;;7.28;5.20;;;23.60;57.80;;;;;;5038805;28;20033;-79
2021/06/18 07:49:11;;;;;;;5.53;4.97;;;23.60;57.30;;;;;;5036701;28;20037;-78
2021/06/18 07:51:37;;;;;;;5.05;4.65;;;23.70;57.90;;;;;;5044924;28;20587;-79
2021/06/18 07:54:03;;;;;;;7.15;5.25;;;23.80;57.60;;;;;;5045320;28;20021;-77
2021/06/18 07:56:32;;;;;;;6.25;5.43;;;23.90;57.90;;;;;;5042428;28;20051;-80
2021/06/18 07:58:58;;;;;;;5.43;4.88;;;24.00;58.30;;;;;;5043294;28;20017;-79
2021/06/18 08:01:24;;;;;;;7.65;4.90;;;24.20;59.00;;;;;;5038552;28;20074;-78
2021/06/18 08:03:50;;;;;;;5.40;4.85;;;24.40;57.30;;;;;;5042375;28;20036;-79
2021/06/18 08:06:17;;;;;;;5.90;5.10;;;24.50;55.20;;;;;;5040775;28;20150;-78
2021/06/18 08:08:43;;;;;;;5.32;4.82;;;24.50;55.40;;;;;;5046651;28;20027;-79
2021/06/18 08:11:09;;;;;;;4.88;4.47;;;24.70;54.30;;;;;;5040437;28;20785;-78
2021/06/18 08:13:36;;;;;;;4.88;4.47;;;24.70;54.40;;;;;;5042800;28;20040;-78
2021/06/18 08:16:02;;;;;;;5.82;5.05;;;24.90;54.00;;;;;;5041840;28;20052;-78
2021/06/18 08:18:29;;;;;;;5.47;4.97;;;25.00;54.70;;;;;;5040921;28;20025;-76
2021/06/18 08:20:55;;;;;;;7.32;4.70;;;25.10;54.00;;;;;;5040447;28;20021;-76
2021/06/18 08:23:20;;;;;;;7.65;4.88;;;25.20;53.70;;;;;;5031518;28;20479;-77
2021/06/18 08:25:49;;;;;;;5.20;4.78;;;25.30;53.80;;;;;;5037457;28;20051;-77
2021/06/18 08:28:14;;;;;;;6.63;4.75;;;25.40;53.50;;;;;;5030533;28;20021;-77
2021/06/18 08:30:40;;;;;;;5.78;4.93;;;25.50;53.50;;;;;;5037535;28;20041;-77
2021/06/18 08:33:06;;;;;;;6.47;5.32;;;25.60;52.50;;;;;;5041983;28;20029;-77
2021/06/18 08:35:32;;;;;;;6.78;5.32;;;25.70;54.20;;;;;;5033198;28;20057;-78
2021/06/18 08:38:01;;;;;;;5.45;4.95;;;25.80;53.30;;;;;;5032927;28;20059;-78
2021/06/18 08:40:29;;;;;;;8.20;5.10;;;25.90;52.10;;;;;;5033447;28;20053;-77
2021/06/18 08:42:55;;;;;;;5.72;5.03;;;25.90;53.10;;;;;;5038752;28;20078;-77
2021/06/18 08:45:21;;;;;;;7.68;4.88;;;26.00;55.50;;;;;;5040575;28;20036;-78
2021/06/18 08:47:49;;;;;;;6.45;5.30;;;26.10;54.50;;;;;;5047286;28;20043;-78
2021/06/18 08:50:22;;;;;;;5.93;4.80;;;26.20;58.60;;;;;;5038778;28;20141;-79
2021/06/18 08:52:49;;;;;;;6.72;5.13;;;26.30;55.60;;;;;;5040764;28;20056;-79
2021/06/18 08:55:20;;;;;;;5.45;4.82;;;26.30;50.70;;;;;;5046805;28;20033;-79
2021/06/18 08:57:58;;;;;;;7.88;5.07;;;26.30;51.70;;;;;;5045992;28;20041;-78
2021/06/18 09:00:25;;;;;;;5.03;4.47;;;26.40;54.20;;;;;;5036773;28;20021;-79
2021/06/18 09:02:52;;;;;;;5.15;4.70;;;26.50;50.90;;;;;;5046501;28;20040;-79
2021/06/18 09:05:18;;;;;;;6.82;5.03;;;26.60;49.70;;;;;;5048331;28;20044;-79
2021/06/18 09:08:04;;;;;;;6.63;4.88;;;26.80;49.60;;;;;;5042742;28;20033;-78
2021/06/18 09:10:37;;;;;;;5.70;5.05;;;26.90;49.00;;;;;;5054538;28;20108;-79
2021/06/18 09:13:17;;;;;;;6.30;5.03;;;26.90;49.10;;;;;;5043589;28;20029;-79
2021/06/18 09:15:55;;;;;;;5.72;5.13;;;27.00;46.50;;;;;;5058305;28;20116;-79
2021/06/18 09:18:24;;;;;;;6.15;5.07;;;27.00;47.00;;;;;;5042846;28;20028;-78
2021/06/18 09:20:55;;;;;;;6.38;5.25;;;27.20;51.60;;;;;;5035017;28;20991;-80
2021/06/18 09:23:23;;;;;;;6.35;4.80;;;27.30;49.60;;;;;;5039378;28;20071;-78
2021/06/18 09:26:09;;;;;;;6.40;4.88;;;27.50;47.30;;;;;;5037942;28;20044;-78
2021/06/18 09:28:54;;;;;;;7.35;4.53;;;27.60;49.10;;;;;;5042132;28;20060;-77
2021/06/18 09:31:23;;;;;;;4.97;4.47;;;27.70;45.90;;;;;;5042445;28;20081;-78
2021/06/18 09:33:48;;;;;;;5.10;4.60;;;27.80;44.80;;;;;;5046228;28;20039;-78
2021/06/18 09:36:14;;;;;;;9.88;4.70;;;27.80;44.50;;;;;;5041987;28;20025;-79
2021/06/18 09:38:48;;;;;;;6.10;4.55;;;27.90;48.00;;;;;;5042790;28;20029;-77
2021/06/18 09:41:33;;;;;;;4.90;4.50;;;28.10;46.00;;;;;;5039204;28;20032;-79
2021/06/18 09:44:16;;;;;;;158.88;12.52;;;28.10;44.10;;;;;;5040891;28;20996;-79
2021/06/18 09:46:53;;;;;;;6.53;4.45;;;28.30;45.00;;;;;;5041375;28;20136;-77
2021/06/18 09:49:33;;;;;;;6.13;4.45;;;28.50;43.80;;;;;;5049427;28;20052;-79
2021/06/18 09:52:03;;;;;;;4.57;4.10;;;28.60;44.20;;;;;;5041616;28;20147;-79
2021/06/18 09:54:32;;;;;;;5.65;4.40;;;28.60;45.90;;;;;;5050449;28;20047;-79
2021/06/18 09:57:09;;;;;;;5.65;4.60;;;28.70;44.60;;;;;;5046957;28;20056;-78
2021/06/18 10:00:05;;;;;;;4.82;4.38;;;28.70;43.20;;;;;;5040365;28;20017;-78
2021/06/18 10:02:47;;;;;;;6.05;4.40;;;28.70;41.40;;;;;;5029800;28;20097;-77
2021/06/18 10:05:14;;;;;;;4.82;4.43;;;28.70;43.70;;;;;;5059531;28;20536;-79
2021/06/18 10:07:41;;;;;;;5.43;4.20;;;28.80;41.50;;;;;;5045981;28;20031;-79
2021/06/18 10:10:11;;;;;;;4.95;4.45;;;28.90;44.60;;;;;;5042205;28;20302;-78
2021/06/18 10:12:38;;;;;;;5.95;4.43;;;28.90;44.30;;;;;;5040944;28;20044;-79
2021/06/18 10:15:07;;;;;;;4.90;4.47;;;29.10;45.50;;;;;;5043974;28;20068;-78
2021/06/18 10:17:38;;;;;;;4.45;3.95;;;29.00;42.20;;;;;;5041936;28;20014;-77
2021/06/18 10:20:09;;;;;;;5.28;4.78;;;29.10;46.80;;;;;;5037500;28;20025;-78
2021/06/18 10:23:01;;;;;;;4.53;4.13;;;29.10;45.30;;;;;;5042439;28;20389;-79
2021/06/18 10:25:32;;;;;;;6.28;4.57;;;29.00;41.90;;;;;;5042257;28;20044;-78
2021/06/18 10:28:08;;;;;;;4.18;3.78;;;29.20;45.30;;;;;;5043243;28;20036;-78
2021/06/18 10:30:47;;;;;;;4.90;3.97;;;29.20;44.40;;;;;;5043164;28;20041;-79
2021/06/18 10:33:34;;;;;;;4.47;4.07;;;29.30;46.50;;;;;;5041908;28;20081;-79
2021/06/18 10:36:08;;;;;;;4.80;3.83;;;29.20;41.40;;;;;;5039160;28;20368;-77
2021/06/18 10:38:46;;;;;;;4.55;3.58;;;29.30;43.60;;;;;;5045593;28;20047;-79
2021/06/18 10:41:17;;;;;;;3.72;3.33;;;29.40;39.20;;;;;;5036355;28;20252;-78
2021/06/18 10:43:59;;;;;;;3.78;3.47;;;29.50;39.00;;;;;;5055494;28;20059;-79
2021/06/18 10:46:37;;;;;;;4.53;2.72;;;29.60;41.80;;;;;;5041909;28;20071;-80
2021/06/18 10:49:04;;;;;;;3.60;3.13;;;29.70;37.20;;;;;;5032664;28;20033;-78
2021/06/18 10:51:34;;;;;;;2.83;2.63;;;29.70;39.80;;;;;;5040472;28;20196;-78
2021/06/18 10:54:04;;;;;;;3.00;2.80;;;29.80;37.40;;;;;;5036067;28;20409;-79
2021/06/18 10:56:46;;;;;;;3.00;2.75;;;29.80;38.20;;;;;;5035163;28;20028;-78
2021/06/18 10:59:17;;;;;;;4.35;2.85;;;29.70;32.80;;;;;;5045662;28;20385;-78
2021/06/18 11:01:43;;;;;;;3.53;2.63;;;29.60;31.10;;;;;;5034969;28;20235;-79
2021/06/18 11:04:09;;;;;;;2.92;2.17;;;29.60;35.50;;;;;;5037080;28;20049;-78
2021/06/18 11:06:49;;;;;;;3.47;2.30;;;29.60;33.90;;;;;;5039315;28;20033;-78
2021/06/18 11:09:40;;;;;;;3.47;3.10;;;29.60;33.80;;;;;;5035982;28;20102;-78
2021/06/18 11:12:27;;;;;;;3.60;3.30;;;29.60;33.20;;;;;;5041164;28;20377;-79
2021/06/18 11:14:55;;;;;;;;;;;29.70;37.60;;;;;;5043823;28;21266;-79
2021/06/18 11:17:52;;;;;;;3.70;2.75;;;29.80;37.30;;;;;;5040146;28;19920;-79
2021/06/18 11:20:33;;;;;;;3.13;2.83;;;29.80;35.70;;;;;;5034470;28;20021;-77
2021/06/18 11:23:26;;;;;;;3.80;3.40;;;29.80;34.50;;;;;;5037824;28;20029;-78
2021/06/18 11:26:04;;;;;;;3.20;3.00;;;29.90;35.60;;;;;;5038722;28;20052;-78
2021/06/18 11:28:34;;;;;;;4.00;3.25;;;29.90;33.80;;;;;;5041868;28;20115;-79
2021/06/18 11:31:02;;;;;;;3.33;3.03;;;29.90;35.30;;;;;;5042394;28;20045;-77
2021/06/18 11:33:40;;;;;;;4.55;3.08;;;29.90;33.90;;;;;;5038965;28;20020;-78
2021/06/18 11:36:20;;;;;;;5.10;2.95;;;29.90;34.40;;;;;;5039132;28;20438;-78
2021/06/18 11:38:48;;;;;;;3.33;2.90;;;30.00;30.80;;;;;;5039768;28;20361;-79
2021/06/18 11:41:19;;;;;;;3.65;3.35;;;29.90;33.10;;;;;;5040536;28;20021;-79
2021/06/18 11:43:45;;;;;;;4.65;3.63;;;29.90;33.50;;;;;;5041047;28;20103;-78
2021/06/18 11:46:11;;;;;;;22.80;17.73;;;29.90;33.90;;;;;;5041232;28;20441;-79
2021/06/18 11:48:37;;;;;;;4.13;3.83;;;29.90;33.90;;;;;;5045956;28;22073;-78
2021/06/18 11:51:03;;;;;;;5.40;3.60;;;29.70;35.40;;;;;;5045029;28;20029;-78
2021/06/18 11:53:40;;;;;;;3.70;3.40;;;29.60;36.00;;;;;;5047933;28;20211;-80
2021/06/18 11:56:06;;;;;;;5.97;3.42;;;29.60;33.30;;;;;;5045703;28;20056;-79
2021/06/18 11:58:38;;;;;;;5.35;3.50;;;29.50;35.40;;;;;;5050482;28;20033;-78
2021/06/18 12:01:13;;;;;;;3.75;3.45;;;29.60;36.00;;;;;;5039139;28;20170;-80
2021/06/18 12:03:40;;;;;;;3.88;3.58;;;29.70;36.40;;;;;;5046277;28;20048;-80
2021/06/18 12:06:18;;;;;;;4.50;3.87;;;29.80;36.70;;;;;;5040042;28;20025;-80
2021/06/18 12:09:09;;;;;;;3.55;3.25;;;29.70;36.50;;;;;;5037763;28;20781;-80
2021/06/18 12:11:36;;;;;;;3.60;3.10;;;29.70;35.10;;;;;;5042505;28;20124;-79
2021/06/18 12:14:03;;;;;;;4.95;3.25;;;29.70;35.50;;;;;;5041793;28;20029;-79
2021/06/18 12:16:31;;;;;;;4.45;3.13;;;29.70;35.60;;;;;;5041383;28;20036;-80
2021/06/18 12:19:26;;;;;;;3.83;3.47;;;29.50;33.00;;;;;;5043123;28;20476;-80
2021/06/18 12:22:04;;;;;;;3.35;2.95;;;29.60;40.40;;;;;;5057411;28;20035;-80
2021/06/18 12:24:33;;;;;;;3.30;3.05;;;29.60;33.20;;;;;;5043091;28;20479;-78
2021/06/18 12:27:01;;;;;;;3.75;3.10;;;29.60;33.40;;;;;;5053010;28;20024;-80
2021/06/18 12:29:27;;;;;;;3.15;2.95;;;29.60;34.50;;;;;;5047700;28;20037;-80
2021/06/18 12:31:55;;;;;;;3.78;2.60;;;29.70;34.20;;;;;;5041700;28;20037;-79
2021/06/18 12:34:21;;;;;;;3.30;2.90;;;29.70;34.00;;;;;;5044254;28;20029;-80
2021/06/18 12:36:48;;;;;;;2.92;2.60;;;29.60;33.60;;;;;;5046720;28;20021;-80
2021/06/18 12:39:14;;;;;;;4.28;2.83;;;29.70;34.20;;;;;;5038285;28;20056;-79
2021/06/18 12:41:40;;;;;;;3.20;2.70;;;29.70;34.10;;;;;;5047146;28;20024;-80
2021/06/18 12:44:07;;;;;;;3.60;2.60;;;29.70;34.30;;;;;;5050071;28;20135;-80
2021/06/18 12:46:34;;;;;;;4.25;2.63;;;29.80;32.50;;;;;;5044732;28;20029;-80
2021/06/18 12:49:11;;;;;;;3.00;2.70;;;29.80;32.00;;;;;;5048929;28;20048;-80
2021/06/18 12:51:38;;;;;;;3.90;2.88;;;29.90;33.70;;;;;;5046513;28;20029;-80
2021/06/18 12:54:06;;;;;;;3.95;2.72;;;29.90;34.50;;;;;;5043067;28;20496;-80
2021/06/18 12:56:43;;;;;;;3.30;2.95;;;29.90;34.10;;;;;;5042888;28;20082;-79
2021/06/18 12:59:13;;;;;;;;;;;30.00;31.70;;;;;;5046761;28;20135;-80